createdAt,value
2019-02-16T00:00:55.691Z,7.41
2019-02-16T00:03:31.564Z,7.39
2019-02-16T00:06:04.214Z,7.43
2019-02-16T00:08:35.871Z,7.46
2019-02-16T00:11:09.048Z,7.45
2019-02-16T00:13:41.330Z,7.36
2019-02-16T00:16:13.196Z,7.21
2019-02-16T00:18:44.770Z,7.06
2019-02-16T00:21:17.120Z,7.00
2019-02-16T00:23:48.745Z,6.92
2019-02-16T00:26:20.897Z,6.80
2019-02-16T00:28:52.585Z,6.73
2019-02-16T00:31:24.242Z,6.67
2019-02-16T00:34:01.305Z,6.60
2019-02-16T00:36:33.808Z,6.54
2019-02-16T00:39:06.184Z,6.52
2019-02-16T00:41:37.798Z,6.52
2019-02-16T00:44:12.128Z,6.46
2019-02-16T00:46:43.719Z,6.38
2019-02-16T00:49:15.392Z,6.31
2019-02-16T00:51:48.874Z,6.23
2019-02-16T00:54:20.500Z,6.20
2019-02-16T00:56:53.394Z,6.20
2019-02-16T00:59:25.143Z,6.16
2019-02-16T01:01:57.233Z,6.13
2019-02-16T01:04:33.814Z,6.09
2019-02-16T01:07:05.872Z,6.07
2019-02-16T01:09:37.508Z,6.06
2019-02-16T01:12:09.193Z,6.10
2019-02-16T01:14:40.813Z,6.17
2019-02-16T01:17:12.496Z,6.21
2019-02-16T01:19:44.190Z,6.23
2019-02-16T01:22:16.368Z,6.23
2019-02-16T01:24:48.240Z,6.17
2019-02-16T01:27:19.991Z,6.09
2019-02-16T01:29:53.237Z,6.04
2019-02-16T01:32:24.831Z,6.04
2019-02-16T01:34:57.793Z,6.04
2019-02-16T01:37:34.511Z,5.99
2019-02-16T01:40:10.338Z,5.96
2019-02-16T01:42:42.851Z,5.95
2019-02-16T01:45:15.637Z,5.96
2019-02-16T01:47:47.390Z,5.94
2019-02-16T01:50:20.106Z,5.90
2019-02-16T01:52:51.725Z,5.83
2019-02-16T01:55:24.013Z,5.79
2019-02-16T01:57:55.679Z,5.73
2019-02-16T02:00:28.006Z,5.70
2019-02-16T02:02:59.633Z,5.69
2019-02-16T02:05:31.261Z,5.71
2019-02-16T02:08:02.875Z,5.71
2019-02-16T02:10:35.563Z,5.71
2019-02-16T02:13:09.518Z,5.74
2019-02-16T02:15:41.115Z,5.76
2019-02-16T02:18:13.003Z,5.73
2019-02-16T02:20:44.987Z,5.71
2019-02-16T02:23:16.559Z,5.67
2019-02-16T02:25:49.042Z,5.59
2019-02-16T02:28:20.662Z,5.52
2019-02-16T02:30:52.656Z,5.48
2019-02-16T02:33:24.294Z,5.44
2019-02-16T02:35:55.898Z,5.42
2019-02-16T02:38:27.645Z,5.42
2019-02-16T02:41:00.067Z,5.44
2019-02-16T02:43:34.792Z,5.47
2019-02-16T02:46:06.499Z,5.50
2019-02-16T02:48:38.100Z,5.52
2019-02-16T02:51:09.721Z,5.52
2019-02-16T02:53:41.344Z,5.55
2019-02-16T02:56:13.811Z,5.58
2019-02-16T02:58:45.395Z,5.59
2019-02-16T03:01:17.615Z,5.60
2019-02-16T03:03:49.418Z,5.59
2019-02-16T03:06:22.106Z,5.60
2019-02-16T03:08:53.759Z,5.59
2019-02-16T03:11:26.098Z,5.53
2019-02-16T03:13:58.416Z,5.48
2019-02-16T03:16:30.168Z,5.45
2019-02-16T03:19:01.855Z,5.42
2019-02-16T03:21:33.480Z,5.43
2019-02-16T03:24:05.080Z,5.40
2019-02-16T03:27:13.314Z,5.33
2019-02-16T03:30:23.240Z,5.23
2019-02-16T03:33:22.426Z,5.10
2019-02-16T03:36:50.726Z,5.00
2019-02-16T03:39:29.919Z,4.90
2019-02-16T03:42:01.807Z,4.79
2019-02-16T03:44:33.411Z,4.76
2019-02-16T03:47:05.686Z,4.78
2019-02-16T03:49:37.269Z,4.78
2019-02-16T03:52:13.750Z,4.78
2019-02-16T03:54:42.266Z,4.77
2019-02-16T03:57:14.299Z,4.78
2019-02-16T03:59:46.934Z,4.76
2019-02-16T04:02:18.634Z,4.80
2019-02-16T04:04:50.930Z,4.84
2019-02-16T04:07:23.733Z,4.90
2019-02-16T04:09:55.453Z,4.93
2019-02-16T04:12:27.793Z,4.97
2019-02-16T04:14:59.400Z,4.99
2019-02-16T04:17:30.976Z,5.03
2019-02-16T04:20:03.219Z,5.04
2019-02-16T04:22:34.817Z,5.02
2019-02-16T04:25:08.000Z,4.94
2019-02-16T04:27:39.647Z,4.79
2019-02-16T04:30:11.338Z,4.65
2019-02-16T04:32:42.958Z,4.55
2019-02-16T04:35:15.625Z,4.47
2019-02-16T04:37:47.215Z,4.43
2019-02-16T04:40:18.822Z,4.45
2019-02-16T04:42:50.563Z,4.49
2019-02-16T04:45:22.178Z,4.55
2019-02-16T04:47:53.768Z,4.57
2019-02-16T04:50:26.057Z,4.55
2019-02-16T04:52:59.603Z,4.55
2019-02-16T04:55:31.214Z,4.58
2019-02-16T04:58:02.871Z,4.62
2019-02-16T05:00:34.511Z,4.63
2019-02-16T05:03:06.231Z,4.66
2019-02-16T05:05:38.563Z,4.69
2019-02-16T05:08:10.194Z,4.70
2019-02-16T05:10:41.828Z,4.68
2019-02-16T05:13:14.288Z,4.65
2019-02-16T05:15:45.874Z,4.61
2019-02-16T05:18:17.575Z,4.55
2019-02-16T05:20:50.013Z,4.49
2019-02-16T05:23:21.660Z,4.40
2019-02-16T05:25:53.296Z,4.28
2019-02-16T05:28:24.956Z,4.19
2019-02-16T05:30:56.590Z,4.14
2019-02-16T05:33:28.355Z,4.13
2019-02-16T05:36:00.577Z,4.13
2019-02-16T05:38:32.446Z,4.13
2019-02-16T05:41:04.088Z,4.14
2019-02-16T05:43:35.756Z,4.10
2019-02-16T05:46:07.788Z,4.07
2019-02-16T05:48:39.398Z,4.02
2019-02-16T05:51:13.225Z,3.98
2019-02-16T05:53:44.933Z,3.98
2019-02-16T05:56:16.719Z,3.99
2019-02-16T05:58:48.528Z,4.01
2019-02-16T06:01:20.270Z,3.97
2019-02-16T06:03:51.925Z,3.89
2019-02-16T06:06:24.331Z,3.81
2019-02-16T06:08:56.190Z,3.73
2019-02-16T06:11:27.921Z,3.68
2019-02-16T06:14:00.367Z,3.70
2019-02-16T06:16:31.977Z,3.73
2019-02-16T06:19:03.748Z,3.79
2019-02-16T06:21:35.377Z,3.87
2019-02-16T06:24:07.491Z,3.93
2019-02-16T06:26:39.307Z,4.00
2019-02-16T06:29:10.933Z,4.04
2019-02-16T06:31:42.677Z,4.06
2019-02-16T06:34:14.439Z,4.10
2019-02-16T06:36:46.141Z,4.12
2019-02-16T06:39:19.599Z,4.16
2019-02-16T06:41:51.417Z,4.20
2019-02-16T06:44:23.198Z,4.21
2019-02-16T06:46:54.911Z,4.16
2019-02-16T06:49:28.030Z,4.09
2019-02-16T06:51:59.795Z,4.03
2019-02-16T06:54:32.056Z,3.97
2019-02-16T06:57:21.640Z,3.91
2019-02-16T06:59:53.579Z,3.83
2019-02-16T07:02:26.570Z,3.73
2019-02-16T07:04:58.228Z,3.69
2019-02-16T07:07:30.117Z,3.69
2019-02-16T07:10:02.673Z,3.74
2019-02-16T07:12:34.303Z,3.76
2019-02-16T07:15:07.128Z,3.77
2019-02-16T07:18:06.701Z,3.78
2019-02-16T07:20:38.532Z,3.79
2019-02-16T07:23:10.158Z,3.80
2019-02-16T07:25:42.516Z,3.84
2019-02-16T07:28:14.206Z,3.87
2019-02-16T07:30:45.926Z,3.88
2019-02-16T07:33:17.539Z,3.88
2019-02-16T07:35:49.259Z,3.87
2019-02-16T07:38:21.860Z,3.89
2019-02-16T07:40:54.204Z,3.91
2019-02-16T07:43:56.833Z,3.94
2019-02-16T07:46:40.919Z,4.00
2019-02-16T07:49:20.128Z,4.06
2019-02-16T07:51:56.799Z,4.15
2019-02-16T07:54:50.478Z,4.28
2019-02-16T07:57:37.725Z,4.41
2019-02-16T08:00:18.058Z,4.53
2019-02-16T08:03:03.075Z,4.65
2019-02-16T08:05:42.584Z,4.76
2019-02-16T08:08:41.188Z,4.86
2019-02-16T08:11:44.638Z,4.96
2019-02-16T08:14:44.423Z,5.11
2019-02-16T08:17:30.710Z,5.30
2019-02-16T08:20:24.220Z,5.47
2019-02-16T08:23:21.155Z,5.60
2019-02-16T08:26:17.714Z,5.71
2019-02-16T08:29:21.606Z,5.84
2019-02-16T08:32:21.254Z,5.93
2019-02-16T08:35:25.871Z,6.03
2019-02-16T08:38:10.407Z,6.14
2019-02-16T08:40:55.759Z,6.24
2019-02-16T08:43:47.358Z,6.34
2019-02-16T08:46:41.372Z,6.46
2019-02-16T08:49:33.373Z,6.58
2019-02-16T08:52:26.669Z,6.68
2019-02-16T08:55:20.415Z,6.81
2019-02-16T08:58:19.872Z,6.95
2019-02-16T09:01:07.507Z,7.07
2019-02-16T09:03:54.488Z,7.20
2019-02-16T09:06:57.669Z,7.33
2019-02-16T09:09:51.207Z,7.46
2019-02-16T09:12:40.682Z,7.59
2019-02-16T09:15:28.763Z,7.70
2019-02-16T09:18:24.440Z,7.82
2019-02-16T09:21:15.046Z,7.93
2019-02-16T09:24:06.944Z,8.05
2019-02-16T09:27:10.676Z,8.18
2019-02-16T09:30:04.505Z,8.31
2019-02-16T09:32:43.711Z,8.44
2019-02-16T09:35:43.897Z,8.57
2019-02-16T09:38:23.128Z,8.66
2019-02-16T09:41:23.762Z,8.76
2019-02-16T09:44:20.205Z,8.85
2019-02-16T09:47:16.887Z,8.94
2019-02-16T09:50:16.521Z,9.05
2019-02-16T09:53:05.890Z,9.14
2019-02-16T09:56:00.030Z,9.24
2019-02-16T09:58:50.567Z,9.36
2019-02-16T10:01:40.119Z,9.48
2019-02-16T10:04:19.460Z,9.60
2019-02-16T10:07:11.405Z,9.71
2019-02-16T10:10:06.086Z,9.78
2019-02-16T10:12:51.671Z,9.85
2019-02-16T10:15:45.371Z,9.93
2019-02-16T10:18:47.551Z,9.99
2019-02-16T10:21:43.096Z,10.05
2019-02-16T10:24:36.770Z,10.12
2019-02-16T10:27:21.791Z,10.19
2019-02-16T10:30:11.076Z,10.27
2019-02-16T10:33:12.704Z,10.34
2019-02-16T10:36:12.504Z,10.42
2019-02-16T10:39:30.646Z,10.48
2019-02-16T10:42:22.464Z,10.54
2019-02-16T10:45:16.547Z,10.62
2019-02-16T10:48:09.816Z,10.70
2019-02-16T10:50:53.959Z,10.77
2019-02-16T10:53:34.135Z,10.83
2019-02-16T10:56:27.911Z,10.91
2019-02-16T10:59:25.106Z,10.97
2019-02-16T11:02:07.389Z,11.01
2019-02-16T11:04:56.839Z,11.07
2019-02-16T11:07:47.889Z,11.14
2019-02-16T11:10:39.948Z,11.21
2019-02-16T11:13:29.579Z,11.29
2019-02-16T11:16:21.359Z,11.37
2019-02-16T11:19:20.892Z,11.44
2019-02-16T11:22:11.233Z,11.48
2019-02-16T11:25:01.779Z,11.56
2019-02-16T11:27:52.398Z,11.65
2019-02-16T11:30:43.039Z,11.74
2019-02-16T11:33:25.533Z,11.82
2019-02-16T11:36:18.924Z,11.90
2019-02-16T11:39:10.259Z,11.97
2019-02-16T11:42:16.131Z,12.05
2019-02-16T11:45:08.793Z,12.12
2019-02-16T11:48:03.042Z,12.17
2019-02-16T11:50:54.560Z,12.23
2019-02-16T11:53:33.652Z,12.29
2019-02-16T11:56:22.221Z,12.35
2019-02-16T11:59:15.909Z,12.41
2019-02-16T12:02:12.403Z,12.46
2019-02-16T12:04:52.658Z,12.49
2019-02-16T12:07:47.801Z,12.52
2019-02-16T12:10:37.148Z,12.59
2019-02-16T12:13:20.557Z,12.65
2019-02-16T12:16:04.397Z,12.69
2019-02-16T12:18:45.168Z,12.75
2019-02-16T12:21:34.380Z,12.82
2019-02-16T12:24:23.753Z,12.87
2019-02-16T12:27:20.321Z,12.93
2019-02-16T12:30:11.609Z,12.98
2019-02-16T12:32:54.176Z,13.04
2019-02-16T12:35:50.710Z,13.09
2019-02-16T12:38:40.468Z,13.14
2019-02-16T12:41:36.653Z,13.19
2019-02-16T12:44:42.871Z,13.25
2019-02-16T12:47:36.753Z,13.31
2019-02-16T12:50:33.254Z,13.38
2019-02-16T12:53:22.902Z,13.45
2019-02-16T12:56:24.424Z,13.51
2019-02-16T12:59:16.030Z,13.58
2019-02-16T13:02:13.924Z,13.63
2019-02-16T13:04:56.411Z,13.70
2019-02-16T13:07:48.735Z,13.77
2019-02-16T13:10:45.515Z,13.81
2019-02-16T13:13:31.618Z,13.87
2019-02-16T13:16:10.472Z,13.92
2019-02-16T13:18:59.909Z,13.97
2019-02-16T13:21:53.311Z,14.03
2019-02-16T13:24:40.850Z,14.08
2019-02-16T13:27:21.105Z,14.12
2019-02-16T13:30:04.370Z,14.16
2019-02-16T13:33:10.509Z,14.22
2019-02-16T13:36:04.704Z,14.25
2019-02-16T13:38:55.574Z,14.29
2019-02-16T13:41:36.785Z,14.33
2019-02-16T13:44:20.450Z,14.39
2019-02-16T13:47:23.546Z,14.44
2019-02-16T13:50:02.922Z,14.49
2019-02-16T13:52:53.278Z,14.53
2019-02-16T14:01:32.038Z,14.65
2019-02-16T14:04:30.808Z,14.70
2019-02-16T14:07:12.667Z,14.75
2019-02-16T14:10:01.800Z,14.80
2019-02-16T14:12:51.179Z,14.82
2019-02-16T14:15:54.610Z,14.86
2019-02-16T14:18:26.369Z,14.90
2019-02-16T14:20:58.258Z,14.95
2019-02-16T14:23:29.911Z,14.99
2019-02-16T14:31:04.281Z,15.14
2019-02-16T14:33:36.291Z,15.17
2019-02-16T14:36:09.623Z,15.20
2019-02-16T14:38:50.301Z,15.23
2019-02-16T14:41:21.998Z,15.26
2019-02-16T14:43:53.851Z,15.31
2019-02-16T14:46:26.712Z,15.34
2019-02-16T14:48:59.729Z,15.37
2019-02-16T14:51:31.504Z,15.40
2019-02-16T14:54:03.218Z,15.42
2019-02-16T14:56:34.943Z,15.44
2019-02-16T14:59:06.584Z,15.45
2019-02-16T15:01:38.351Z,15.47
2019-02-16T15:04:10.119Z,15.50
2019-02-16T15:06:43.090Z,15.52
2019-02-16T15:09:14.833Z,15.54
2019-02-16T15:11:46.558Z,15.54
2019-02-16T15:14:18.236Z,15.55
2019-02-16T15:16:50.810Z,15.56
2019-02-16T15:19:22.666Z,15.57
2019-02-16T15:21:54.895Z,15.59
2019-02-16T15:24:26.578Z,15.60
2019-02-16T15:26:59.368Z,15.59
2019-02-16T15:29:31.293Z,15.59
2019-02-16T15:32:03.517Z,15.58
2019-02-16T15:34:35.465Z,15.57
2019-02-16T15:37:07.700Z,15.56
2019-02-16T15:39:39.589Z,15.56
2019-02-16T15:42:11.515Z,15.52
2019-02-16T15:44:43.225Z,15.49
2019-02-16T15:47:15.383Z,15.45
2019-02-16T15:49:47.031Z,15.43
2019-02-16T15:52:18.944Z,15.38
2019-02-16T15:54:50.854Z,15.35
2019-02-16T15:57:25.694Z,15.31
2019-02-16T15:59:57.609Z,15.26
2019-02-16T16:02:29.274Z,15.23
2019-02-16T16:05:01.746Z,15.20
2019-02-16T16:07:33.529Z,15.15
2019-02-16T16:10:27.197Z,15.13
2019-02-16T16:13:07.457Z,15.09
2019-02-16T16:15:57.494Z,15.03
2019-02-16T16:18:44.348Z,14.99
2019-02-16T16:21:33.486Z,14.95
2019-02-16T16:24:42.439Z,14.89
2019-02-16T16:27:38.901Z,14.84
2019-02-16T16:30:28.444Z,14.77
2019-02-16T16:33:24.823Z,14.72
2019-02-16T16:36:21.682Z,14.68
2019-02-16T16:39:10.507Z,14.63
2019-02-16T16:42:10.518Z,14.60
2019-02-16T16:44:58.391Z,14.57
2019-02-16T16:48:01.039Z,14.53
2019-02-16T16:50:53.274Z,14.49
2019-02-16T16:53:47.677Z,14.45
2019-02-16T16:56:30.549Z,14.41
2019-02-16T16:59:21.111Z,14.36
2019-02-16T17:02:23.912Z,14.31
2019-02-16T17:05:03.828Z,14.25
2019-02-16T17:07:55.242Z,14.17
2019-02-16T17:10:45.810Z,14.11
2019-02-16T17:13:51.539Z,14.06
2019-02-16T17:16:37.794Z,14.00
2019-02-16T17:19:28.729Z,13.92
2019-02-16T17:22:18.161Z,13.80
2019-02-16T17:25:05.345Z,13.62
2019-02-16T17:27:50.709Z,13.45
2019-02-16T17:30:34.972Z,13.32
2019-02-16T17:33:24.614Z,13.21
2019-02-16T17:36:21.128Z,13.15
2019-02-16T17:39:20.506Z,13.08
2019-02-16T17:42:10.234Z,12.96
2019-02-16T17:44:53.081Z,12.85
2019-02-16T17:47:41.781Z,12.73
2019-02-16T17:50:32.351Z,12.58
2019-02-16T17:53:23.001Z,12.42
2019-02-16T17:56:25.818Z,12.27
2019-02-16T17:59:19.465Z,12.16
2019-02-16T18:01:59.633Z,12.06
2019-02-16T18:05:08.721Z,11.99
2019-02-16T18:07:51.208Z,11.89
2019-02-16T18:10:50.660Z,11.73
2019-02-16T18:13:47.599Z,11.58
2019-02-16T18:16:47.940Z,11.46
2019-02-16T18:19:34.033Z,11.41
2019-02-16T18:22:30.466Z,11.37
2019-02-16T18:25:19.586Z,11.38
2019-02-16T18:28:12.685Z,11.40
2019-02-16T18:31:07.962Z,11.41
2019-02-16T18:33:58.522Z,11.38
2019-02-16T18:36:45.171Z,11.36
2019-02-16T18:39:44.619Z,11.28
2019-02-16T18:42:33.935Z,11.14
2019-02-16T18:45:21.683Z,10.96
2019-02-16T18:48:07.162Z,10.85
2019-02-16T18:51:05.001Z,10.76
2019-02-16T18:54:01.381Z,10.74
2019-02-16T18:56:51.422Z,10.70
2019-02-16T18:59:51.242Z,10.69
2019-02-16T19:02:35.825Z,10.67
2019-02-16T19:05:22.897Z,10.69
2019-02-16T19:08:12.360Z,10.70
2019-02-16T19:11:10.146Z,10.71
2019-02-16T19:13:59.593Z,10.66
2019-02-16T19:16:51.256Z,10.52
2019-02-16T19:19:40.529Z,10.35
2019-02-16T19:22:21.765Z,10.15
2019-02-16T19:25:12.447Z,10.01
2019-02-16T19:28:00.165Z,9.86
2019-02-16T19:30:54.600Z,9.69
2019-02-16T19:33:43.890Z,9.51
2019-02-16T19:36:26.931Z,9.37
2019-02-16T19:39:32.784Z,9.33
2019-02-16T19:42:26.150Z,9.33
2019-02-16T19:45:15.422Z,9.25
2019-02-16T19:48:24.003Z,9.17
2019-02-16T19:51:17.583Z,9.19
2019-02-16T19:54:05.908Z,9.28
2019-02-16T19:56:59.229Z,9.28
2019-02-16T19:59:43.134Z,9.16
2019-02-16T20:02:43.126Z,9.07
2019-02-16T20:05:26.422Z,9.00
2019-02-16T20:08:11.385Z,8.89
2019-02-16T20:10:50.028Z,8.82
2019-02-16T20:13:40.650Z,8.76
2019-02-16T20:16:41.171Z,8.76
2019-02-16T20:19:36.387Z,8.74
2019-02-16T20:22:26.922Z,8.71
2019-02-16T20:25:11.700Z,8.70
2019-02-16T20:28:05.294Z,8.68
2019-02-16T20:30:54.708Z,8.68
2019-02-16T20:36:39.357Z,8.55
2019-02-16T20:39:28.855Z,8.47
2019-02-16T20:42:20.157Z,8.46
2019-02-16T20:45:11.057Z,8.48
2019-02-16T20:48:16.932Z,8.47
2019-02-16T20:51:07.473Z,8.40
2019-02-16T20:53:58.105Z,8.38
2019-02-16T20:56:41.382Z,8.41
2019-02-16T20:59:32.485Z,8.45
2019-02-16T21:02:26.580Z,8.48
2019-02-16T21:05:17.535Z,8.50
2019-02-16T21:08:10.270Z,8.50
2019-02-16T21:10:49.745Z,8.52
2019-02-16T21:13:53.872Z,8.52
2019-02-16T21:17:01.200Z,8.54
2019-02-16T21:19:39.955Z,8.56
2019-02-16T21:22:21.708Z,8.55
2019-02-16T21:25:12.324Z,8.52
2019-02-16T21:28:03.002Z,8.47
2019-02-16T21:30:44.542Z,8.45
2019-02-16T21:33:38.296Z,8.37
2019-02-16T21:36:31.639Z,8.27
2019-02-16T21:39:25.053Z,8.18
2019-02-16T21:42:03.108Z,8.14
2019-02-16T21:44:55.162Z,8.14
2019-02-16T21:47:45.914Z,8.12
2019-02-16T21:50:39.779Z,7.99
2019-02-16T21:53:33.521Z,7.86
2019-02-16T21:56:28.021Z,7.71
2019-02-16T21:59:21.582Z,7.59
2019-02-16T22:02:10.823Z,7.55
2019-02-16T22:04:52.497Z,7.51
2019-02-16T22:07:48.408Z,7.49
2019-02-16T22:10:38.609Z,7.52
2019-02-16T22:13:10.352Z,7.55
2019-02-16T22:15:44.071Z,7.55
2019-02-16T22:18:16.081Z,7.45
2019-02-16T22:20:48.126Z,7.30
2019-02-16T22:23:19.849Z,7.17
2019-02-16T22:25:52.052Z,7.04
2019-02-16T22:28:30.889Z,6.98
2019-02-16T22:30:57.673Z,6.97
2019-02-16T22:33:35.403Z,6.99
2019-02-16T22:36:07.679Z,7.03
2019-02-16T22:38:43.880Z,7.04
2019-02-16T22:41:16.262Z,7.02
2019-02-16T22:43:48.380Z,6.97
2019-02-16T22:46:20.157Z,6.94
2019-02-16T22:48:53.473Z,6.96
2019-02-16T22:51:25.196Z,7.00
2019-02-16T22:53:56.860Z,7.04
2019-02-16T22:56:28.545Z,7.10
2019-02-16T22:59:00.248Z,7.16
2019-02-16T23:01:32.425Z,7.20
2019-02-16T23:04:04.145Z,7.18
2019-02-16T23:06:35.860Z,7.16
2019-02-16T23:09:21.282Z,7.13
2019-02-16T23:11:52.977Z,7.09
2019-02-16T23:14:24.813Z,7.03
2019-02-16T23:16:56.557Z,6.95
2019-02-16T23:19:28.206Z,6.86
2019-02-16T23:21:59.956Z,6.73
2019-02-16T23:24:31.668Z,6.58
2019-02-16T23:27:03.724Z,6.46
2019-02-16T23:29:35.778Z,6.34
2019-02-16T23:32:07.630Z,6.25
2019-02-16T23:34:39.226Z,6.16
2019-02-16T23:37:10.952Z,6.13
2019-02-16T23:39:42.580Z,6.15
2019-02-16T23:42:14.319Z,6.17
2019-02-16T23:44:46.075Z,6.18
2019-02-16T23:47:17.961Z,6.18
2019-02-16T23:49:49.581Z,6.13
2019-02-16T23:52:21.223Z,6.04
2019-02-16T23:54:53.154Z,5.93
2019-02-16T23:57:24.846Z,5.83
2019-02-16T23:59:56.522Z,5.74
